sensor_id;sensor_type;location;lat;lon;timestamp;P1;durP1;ratioP1;P2;durP2;ratioP2
4047;SDS011;2038;51.728;6.674;2023-04-01T00:01:04;6.80;;;3.13;;
4047;SDS011;2038;51.728;6.674;2023-04-01T00:03:31;5.80;;;2.73;;
4047;SDS011;2038;51.728;6.674;2023-04-01T00:05:59;2.47;;;2.00;;
4047;SDS011;2038;51.728;6.674;2023-04-01T00:08:26;3.70;;;2.90;;
4047;SDS011;2038;51.728;6.674;2023-04-01T00:10:53;5.93;;;2.43;;
4047;SDS011;2038;51.728;6.674;2023-04-01T00:13:21;5.13;;;2.50;;
4047;SDS011;2038;51.728;6.674;2023-04-01T00:15:53;3.70;;;2.60;;
4047;SDS011;2038;51.728;6.674;2023-04-01T00:18:21;5.93;;;2.63;;
4047;SDS011;2038;51.728;6.674;2023-04-01T00:20:49;6.60;;;2.53;;
4047;SDS011;2038;51.728;6.674;2023-04-01T00:23:17;3.20;;;2.20;;
4047;SDS011;2038;51.728;6.674;2023-04-01T00:25:45;9.80;;;2.27;;
4047;SDS011;2038;51.728;6.674;2023-04-01T00:28:15;2.70;;;2.33;;
4047;SDS011;2038;51.728;6.674;2023-04-01T00:30:43;6.90;;;2.77;;
4047;SDS011;2038;51.728;6.674;2023-04-01T00:33:10;2.13;;;1.90;;
4047;SDS011;2038;51.728;6.674;2023-04-01T00:35:39;5.13;;;2.30;;
4047;SDS011;2038;51.728;6.674;2023-04-01T00:38:20;3.27;;;1.67;;
4047;SDS011;2038;51.728;6.674;2023-04-01T00:40:46;5.57;;;2.37;;
4047;SDS011;2038;51.728;6.674;2023-04-01T00:43:23;3.50;;;1.93;;
4047;SDS011;2038;51.728;6.674;2023-04-01T00:45:49;2.97;;;2.60;;
4047;SDS011;2038;51.728;6.674;2023-04-01T00:48:16;3.97;;;2.13;;
4047;SDS011;2038;51.728;6.674;2023-04-01T00:53:55;8.83;;;2.23;;
4047;SDS011;2038;51.728;6.674;2023-04-01T00:56:36;4.30;;;2.50;;
4047;SDS011;2038;51.728;6.674;2023-04-01T00:59:48;5.97;;;2.20;;
4047;SDS011;2038;51.728;6.674;2023-04-01T01:02:20;7.13;;;2.07;;
4047;SDS011;2038;51.728;6.674;2023-04-01T01:04:49;2.43;;;1.73;;
4047;SDS011;2038;51.728;6.674;2023-04-01T01:07:27;5.07;;;2.17;;
4047;SDS011;2038;51.728;6.674;2023-04-01T01:10:46;3.97;;;2.10;;
4047;SDS011;2038;51.728;6.674;2023-04-01T01:13:32;2.30;;;1.60;;
4047;SDS011;2038;51.728;6.674;2023-04-01T01:16:15;2.07;;;1.80;;
4047;SDS011;2038;51.728;6.674;2023-04-01T01:18:58;3.00;;;1.93;;
4047;SDS011;2038;51.728;6.674;2023-04-01T01:28:01;1.73;;;1.43;;
4047;SDS011;2038;51.728;6.674;2023-04-01T01:31:19;3.60;;;2.57;;
4047;SDS011;2038;51.728;6.674;2023-04-01T01:34:19;3.20;;;2.00;;
4047;SDS011;2038;51.728;6.674;2023-04-01T01:36:57;4.80;;;2.33;;
4047;SDS011;2038;51.728;6.674;2023-04-01T01:39:31;3.33;;;2.10;;
4047;SDS011;2038;51.728;6.674;2023-04-01T01:42:03;2.20;;;1.93;;
4047;SDS011;2038;51.728;6.674;2023-04-01T01:44:34;3.83;;;2.20;;
4047;SDS011;2038;51.728;6.674;2023-04-01T01:47:03;3.83;;;2.20;;
4047;SDS011;2038;51.728;6.674;2023-04-01T01:49:32;5.37;;;2.00;;
4047;SDS011;2038;51.728;6.674;2023-04-01T01:52:05;2.47;;;2.07;;
4047;SDS011;2038;51.728;6.674;2023-04-01T01:54:34;3.40;;;1.90;;
4047;SDS011;2038;51.728;6.674;2023-04-01T01:57:14;1.73;;;1.63;;
4047;SDS011;2038;51.728;6.674;2023-04-01T01:59:43;7.00;;;2.10;;
4047;SDS011;2038;51.728;6.674;2023-04-01T02:02:13;3.53;;;1.80;;
4047;SDS011;2038;51.728;6.674;2023-04-01T02:04:42;2.57;;;2.37;;
4047;SDS011;2038;51.728;6.674;2023-04-01T02:07:13;4.67;;;2.30;;
4047;SDS011;2038;51.728;6.674;2023-04-01T02:09:53;2.50;;;2.00;;
4047;SDS011;2038;51.728;6.674;2023-04-01T02:12:22;2.10;;;1.90;;
4047;SDS011;2038;51.728;6.674;2023-04-01T02:14:55;2.20;;;2.03;;
4047;SDS011;2038;51.728;6.674;2023-04-01T02:17:38;4.23;;;2.40;;
4047;SDS011;2038;51.728;6.674;2023-04-01T02:20:12;2.67;;;2.37;;
4047;SDS011;2038;51.728;6.674;2023-04-01T02:22:48;2.20;;;2.00;;
4047;SDS011;2038;51.728;6.674;2023-04-01T02:25:25;4.03;;;2.23;;
4047;SDS011;2038;51.728;6.674;2023-04-01T02:27:59;2.40;;;2.03;;
4047;SDS011;2038;51.728;6.674;2023-04-01T02:30:35;3.43;;;2.43;;
4047;SDS011;2038;51.728;6.674;2023-04-01T02:33:08;2.53;;;2.33;;
4047;SDS011;2038;51.728;6.674;2023-04-01T02:35:37;5.17;;;2.57;;
4047;SDS011;2038;51.728;6.674;2023-04-01T02:38:06;3.10;;;2.90;;
4047;SDS011;2038;51.728;6.674;2023-04-01T02:40:45;2.93;;;2.43;;
4047;SDS011;2038;51.728;6.674;2023-04-01T02:43:21;5.63;;;3.13;;
4047;SDS011;2038;51.728;6.674;2023-04-01T02:45:47;4.50;;;3.00;;
4047;SDS011;2038;51.728;6.674;2023-04-01T02:48:14;3.17;;;2.53;;
4047;SDS011;2038;51.728;6.674;2023-04-01T02:50:40;2.93;;;2.40;;
4047;SDS011;2038;51.728;6.674;2023-04-01T02:53:06;4.93;;;2.80;;
4047;SDS011;2038;51.728;6.674;2023-04-01T02:55:33;3.60;;;3.30;;
4047;SDS011;2038;51.728;6.674;2023-04-01T02:57:59;3.40;;;2.73;;
4047;SDS011;2038;51.728;6.674;2023-04-01T03:00:26;4.20;;;3.90;;
4047;SDS011;2038;51.728;6.674;2023-04-01T03:02:52;3.50;;;2.30;;
4047;SDS011;2038;51.728;6.674;2023-04-01T03:05:19;3.20;;;2.80;;
4047;SDS011;2038;51.728;6.674;2023-04-01T03:07:46;2.40;;;2.20;;
4047;SDS011;2038;51.728;6.674;2023-04-01T03:10:12;3.03;;;2.73;;
4047;SDS011;2038;51.728;6.674;2023-04-01T03:12:39;2.37;;;2.17;;
4047;SDS011;2038;51.728;6.674;2023-04-01T03:15:05;2.60;;;2.20;;
4047;SDS011;2038;51.728;6.674;2023-04-01T03:17:36;2.40;;;2.10;;
4047;SDS011;2038;51.728;6.674;2023-04-01T03:20:03;3.93;;;2.70;;
4047;SDS011;2038;51.728;6.674;2023-04-01T03:22:30;3.10;;;2.40;;
4047;SDS011;2038;51.728;6.674;2023-04-01T03:24:57;7.03;;;2.47;;
4047;SDS011;2038;51.728;6.674;2023-04-01T03:27:23;3.87;;;3.57;;
4047;SDS011;2038;51.728;6.674;2023-04-01T03:29:49;3.57;;;3.00;;
4047;SDS011;2038;51.728;6.674;2023-04-01T03:32:15;8.30;;;2.67;;
4047;SDS011;2038;51.728;6.674;2023-04-01T03:34:41;5.10;;;3.10;;
4047;SDS011;2038;51.728;6.674;2023-04-01T03:37:08;2.70;;;2.40;;
4047;SDS011;2038;51.728;6.674;2023-04-01T03:39:34;4.40;;;2.70;;
4047;SDS011;2038;51.728;6.674;2023-04-01T03:42:01;7.10;;;3.50;;
4047;SDS011;2038;51.728;6.674;2023-04-01T03:44:30;4.30;;;3.90;;
4047;SDS011;2038;51.728;6.674;2023-04-01T03:47:00;5.40;;;4.53;;
4047;SDS011;2038;51.728;6.674;2023-04-01T03:49:26;5.07;;;3.60;;
4047;SDS011;2038;51.728;6.674;2023-04-01T03:51:52;4.57;;;3.93;;
4047;SDS011;2038;51.728;6.674;2023-04-01T03:54:19;4.97;;;3.80;;
4047;SDS011;2038;51.728;6.674;2023-04-01T03:56:46;4.87;;;4.37;;
4047;SDS011;2038;51.728;6.674;2023-04-01T03:59:12;5.20;;;4.57;;
4047;SDS011;2038;51.728;6.674;2023-04-01T04:01:38;4.17;;;3.77;;
4047;SDS011;2038;51.728;6.674;2023-04-01T04:04:05;11.17;;;5.70;;
4047;SDS011;2038;51.728;6.674;2023-04-01T04:06:32;6.37;;;5.30;;
4047;SDS011;2038;51.728;6.674;2023-04-01T04:08:58;5.87;;;4.70;;
4047;SDS011;2038;51.728;6.674;2023-04-01T04:11:24;5.97;;;5.37;;
4047;SDS011;2038;51.728;6.674;2023-04-01T04:13:51;5.67;;;5.07;;
4047;SDS011;2038;51.728;6.674;2023-04-01T04:16:17;5.00;;;4.40;;
4047;SDS011;2038;51.728;6.674;2023-04-01T04:18:43;8.40;;;6.47;;
4047;SDS011;2038;51.728;6.674;2023-04-01T04:21:13;7.00;;;5.80;;
4047;SDS011;2038;51.728;6.674;2023-04-01T04:23:42;6.60;;;5.10;;
4047;SDS011;2038;51.728;6.674;2023-04-01T04:26:10;7.37;;;5.43;;
4047;SDS011;2038;51.728;6.674;2023-04-01T04:28:38;8.60;;;5.40;;
4047;SDS011;2038;51.728;6.674;2023-04-01T04:31:05;9.73;;;4.80;;
4047;SDS011;2038;51.728;6.674;2023-04-01T04:33:32;6.60;;;5.57;;
4047;SDS011;2038;51.728;6.674;2023-04-01T04:36:00;11.10;;;5.60;;
4047;SDS011;2038;51.728;6.674;2023-04-01T04:38:28;7.17;;;5.53;;
4047;SDS011;2038;51.728;6.674;2023-04-01T04:40:55;7.97;;;5.90;;
4047;SDS011;2038;51.728;6.674;2023-04-01T04:43:21;5.73;;;5.13;;
4047;SDS011;2038;51.728;6.674;2023-04-01T04:45:48;8.03;;;5.30;;
4047;SDS011;2038;51.728;6.674;2023-04-01T04:48:14;8.73;;;6.47;;
4047;SDS011;2038;51.728;6.674;2023-04-01T04:50:44;12.10;;;5.60;;
4047;SDS011;2038;51.728;6.674;2023-04-01T04:53:16;8.17;;;5.73;;
4047;SDS011;2038;51.728;6.674;2023-04-01T04:55:47;9.63;;;5.90;;
4047;SDS011;2038;51.728;6.674;2023-04-01T04:58:15;9.13;;;6.07;;
4047;SDS011;2038;51.728;6.674;2023-04-01T05:00:43;7.60;;;6.23;;
4047;SDS011;2038;51.728;6.674;2023-04-01T05:03:10;9.20;;;6.60;;
4047;SDS011;2038;51.728;6.674;2023-04-01T05:05:39;8.93;;;7.20;;
4047;SDS011;2038;51.728;6.674;2023-04-01T05:08:13;10.67;;;7.40;;
4047;SDS011;2038;51.728;6.674;2023-04-01T05:10:41;11.03;;;7.30;;
4047;SDS011;2038;51.728;6.674;2023-04-01T05:13:07;9.20;;;6.90;;
4047;SDS011;2038;51.728;6.674;2023-04-01T05:15:38;9.40;;;6.90;;
4047;SDS011;2038;51.728;6.674;2023-04-01T05:18:05;8.27;;;6.83;;
4047;SDS011;2038;51.728;6.674;2023-04-01T05:20:31;7.63;;;6.73;;
4047;SDS011;2038;51.728;6.674;2023-04-01T05:22:58;11.17;;;7.63;;
4047;SDS011;2038;51.728;6.674;2023-04-01T05:25:25;9.37;;;6.60;;
4047;SDS011;2038;51.728;6.674;2023-04-01T05:27:52;8.43;;;6.90;;
4047;SDS011;2038;51.728;6.674;2023-04-01T05:30:19;7.23;;;6.37;;
4047;SDS011;2038;51.728;6.674;2023-04-01T05:32:46;10.93;;;7.30;;
4047;SDS011;2038;51.728;6.674;2023-04-01T05:35:11;9.47;;;7.40;;
4047;SDS011;2038;51.728;6.674;2023-04-01T05:37:37;11.37;;;7.87;;
4047;SDS011;2038;51.728;6.674;2023-04-01T05:40:04;10.63;;;7.80;;
4047;SDS011;2038;51.728;6.674;2023-04-01T05:42:31;11.57;;;7.73;;
4047;SDS011;2038;51.728;6.674;2023-04-01T05:44:59;7.87;;;6.20;;
4047;SDS011;2038;51.728;6.674;2023-04-01T05:47:25;8.90;;;6.77;;
4047;SDS011;2038;51.728;6.674;2023-04-01T05:49:51;11.40;;;8.60;;
4047;SDS011;2038;51.728;6.674;2023-04-01T05:52:17;10.87;;;7.90;;
4047;SDS011;2038;51.728;6.674;2023-04-01T05:54:44;11.60;;;8.13;;
4047;SDS011;2038;51.728;6.674;2023-04-01T05:57:12;11.43;;;7.70;;
4047;SDS011;2038;51.728;6.674;2023-04-01T05:59:38;11.07;;;8.27;;
4047;SDS011;2038;51.728;6.674;2023-04-01T06:02:03;12.10;;;9.30;;
4047;SDS011;2038;51.728;6.674;2023-04-01T06:04:34;11.70;;;8.50;;
4047;SDS011;2038;51.728;6.674;2023-04-01T06:07:12;12.53;;;10.73;;
4047;SDS011;2038;51.728;6.674;2023-04-01T06:09:42;10.10;;;8.67;;
4047;SDS011;2038;51.728;6.674;2023-04-01T06:15:07;14.23;;;9.83;;
4047;SDS011;2038;51.728;6.674;2023-04-01T06:27:14;12.10;;;8.70;;
4047;SDS011;2038;51.728;6.674;2023-04-01T06:39:41;8.93;;;7.10;;
4047;SDS011;2038;51.728;6.674;2023-04-01T06:42:59;12.00;;;8.43;;
4047;SDS011;2038;51.728;6.674;2023-04-01T06:46:02;10.40;;;7.87;;
4047;SDS011;2038;51.728;6.674;2023-04-01T06:49:21;11.20;;;8.70;;
4047;SDS011;2038;51.728;6.674;2023-04-01T06:55:32;10.03;;;7.80;;
4047;SDS011;2038;51.728;6.674;2023-04-01T06:58:21;9.70;;;7.43;;
4047;SDS011;2038;51.728;6.674;2023-04-01T07:00:59;9.10;;;7.13;;
4047;SDS011;2038;51.728;6.674;2023-04-01T07:03:33;9.13;;;6.70;;
4047;SDS011;2038;51.728;6.674;2023-04-01T07:08:58;8.23;;;5.90;;
4047;SDS011;2038;51.728;6.674;2023-04-01T07:11:36;11.23;;;7.10;;
4047;SDS011;2038;51.728;6.674;2023-04-01T07:17:05;10.80;;;6.60;;
4047;SDS011;2038;51.728;6.674;2023-04-01T07:22:59;11.17;;;6.13;;
4047;SDS011;2038;51.728;6.674;2023-04-01T07:25:42;8.13;;;5.20;;
4047;SDS011;2038;51.728;6.674;2023-04-01T07:28:16;8.47;;;5.27;;
4047;SDS011;2038;51.728;6.674;2023-04-01T07:33:33;8.03;;;5.90;;
4047;SDS011;2038;51.728;6.674;2023-04-01T07:36:53;8.40;;;5.73;;
4047;SDS011;2038;51.728;6.674;2023-04-01T07:43:11;7.00;;;5.37;;
4047;SDS011;2038;51.728;6.674;2023-04-01T07:46:02;10.63;;;6.67;;
4047;SDS011;2038;51.728;6.674;2023-04-01T07:49:08;8.40;;;6.03;;
4047;SDS011;2038;51.728;6.674;2023-04-01T07:54:40;7.63;;;5.93;;
4047;SDS011;2038;51.728;6.674;2023-04-01T08:00:55;11.37;;;7.43;;
4047;SDS011;2038;51.728;6.674;2023-04-01T08:16:23;17.43;;;10.87;;
4047;SDS011;2038;51.728;6.674;2023-04-01T08:19:26;17.73;;;10.83;;
4047;SDS011;2038;51.728;6.674;2023-04-01T08:22:38;22.27;;;13.13;;
4047;SDS011;2038;51.728;6.674;2023-04-01T08:25:24;24.03;;;11.63;;
4047;SDS011;2038;51.728;6.674;2023-04-01T08:28:03;21.33;;;13.40;;
4047;SDS011;2038;51.728;6.674;2023-04-01T08:30:51;18.90;;;11.57;;
4047;SDS011;2038;51.728;6.674;2023-04-01T08:33:50;15.40;;;10.40;;
4047;SDS011;2038;51.728;6.674;2023-04-01T08:38:54;20.00;;;10.97;;
4047;SDS011;2038;51.728;6.674;2023-04-01T08:41:41;20.67;;;12.30;;
4047;SDS011;2038;51.728;6.674;2023-04-01T08:44:56;18.23;;;10.40;;
4047;SDS011;2038;51.728;6.674;2023-04-01T08:47:48;20.13;;;10.10;;
4047;SDS011;2038;51.728;6.674;2023-04-01T08:57:03;18.43;;;10.73;;
4047;SDS011;2038;51.728;6.674;2023-04-01T09:00:05;20.70;;;12.63;;
4047;SDS011;2038;51.728;6.674;2023-04-01T09:09:26;17.33;;;9.30;;
4047;SDS011;2038;51.728;6.674;2023-04-01T09:12:40;8.23;;;5.03;;
4047;SDS011;2038;51.728;6.674;2023-04-01T09:15:54;4.90;;;3.87;;
4047;SDS011;2038;51.728;6.674;2023-04-01T09:21:51;3.40;;;3.10;;
4047;SDS011;2038;51.728;6.674;2023-04-01T09:28:15;3.40;;;2.97;;
4047;SDS011;2038;51.728;6.674;2023-04-01T09:31:00;4.70;;;3.20;;
4047;SDS011;2038;51.728;6.674;2023-04-01T09:33:54;6.13;;;3.53;;
4047;SDS011;2038;51.728;6.674;2023-04-01T09:37:09;6.30;;;4.30;;
4047;SDS011;2038;51.728;6.674;2023-04-01T09:49:26;7.00;;;4.60;;
4047;SDS011;2038;51.728;6.674;2023-04-01T09:54:20;6.83;;;5.20;;
4047;SDS011;2038;51.728;6.674;2023-04-01T10:37:15;2.93;;;2.60;;
4047;SDS011;2038;51.728;6.674;2023-04-01T10:43:46;6.13;;;3.00;;
4047;SDS011;2038;51.728;6.674;2023-04-01T10:49:41;3.17;;;2.53;;
4047;SDS011;2038;51.728;6.674;2023-04-01T10:55:54;2.93;;;2.50;;
4047;SDS011;2038;51.728;6.674;2023-04-01T11:01:59;3.90;;;3.10;;
4047;SDS011;2038;51.728;6.674;2023-04-01T11:26:09;2.57;;;2.37;;
4047;SDS011;2038;51.728;6.674;2023-04-01T11:32:08;2.37;;;2.20;;
4047;SDS011;2038;51.728;6.674;2023-04-01T11:35:25;2.10;;;1.90;;
4047;SDS011;2038;51.728;6.674;2023-04-01T11:44:27;8.47;;;4.63;;
4047;SDS011;2038;51.728;6.674;2023-04-01T11:55:46;4.60;;;3.33;;
4047;SDS011;2038;51.728;6.674;2023-04-01T11:58:41;6.37;;;3.33;;
4047;SDS011;2038;51.728;6.674;2023-04-01T12:04:51;8.97;;;6.27;;
4047;SDS011;2038;51.728;6.674;2023-04-01T12:13:31;13.00;;;8.20;;
4047;SDS011;2038;51.728;6.674;2023-04-01T12:16:18;11.93;;;8.90;;
4047;SDS011;2038;51.728;6.674;2023-04-01T12:30:33;15.70;;;9.40;;
4047;SDS011;2038;51.728;6.674;2023-04-01T12:37:00;15.20;;;9.90;;
4047;SDS011;2038;51.728;6.674;2023-04-01T13:00:10;19.53;;;11.50;;
4047;SDS011;2038;51.728;6.674;2023-04-01T13:06:42;14.00;;;8.70;;
4047;SDS011;2038;51.728;6.674;2023-04-01T13:09:45;15.63;;;9.60;;
4047;SDS011;2038;51.728;6.674;2023-04-01T13:12:52;23.03;;;9.70;;
4047;SDS011;2038;51.728;6.674;2023-04-01T13:16:29;14.87;;;8.90;;
4047;SDS011;2038;51.728;6.674;2023-04-01T13:19:17;15.80;;;10.73;;
4047;SDS011;2038;51.728;6.674;2023-04-01T13:22:08;20.83;;;11.27;;
4047;SDS011;2038;51.728;6.674;2023-04-01T13:28:28;18.87;;;11.70;;
4047;SDS011;2038;51.728;6.674;2023-04-01T13:31:14;16.33;;;11.23;;
4047;SDS011;2038;51.728;6.674;2023-04-01T13:34:38;16.80;;;11.37;;
4047;SDS011;2038;51.728;6.674;2023-04-01T13:41:07;16.30;;;11.63;;
4047;SDS011;2038;51.728;6.674;2023-04-01T13:44:14;16.50;;;11.07;;
4047;SDS011;2038;51.728;6.674;2023-04-01T13:47:50;16.50;;;11.13;;
4047;SDS011;2038;51.728;6.674;2023-04-01T13:57:02;18.43;;;12.07;;
4047;SDS011;2038;51.728;6.674;2023-04-01T14:00:04;18.33;;;11.40;;
4047;SDS011;2038;51.728;6.674;2023-04-01T14:05:56;18.87;;;11.60;;
4047;SDS011;2038;51.728;6.674;2023-04-01T14:12:15;19.23;;;12.10;;
4047;SDS011;2038;51.728;6.674;2023-04-01T14:18:42;16.20;;;12.50;;
4047;SDS011;2038;51.728;6.674;2023-04-01T14:21:33;20.73;;;10.57;;
4047;SDS011;2038;51.728;6.674;2023-04-01T14:24:29;17.63;;;11.43;;
4047;SDS011;2038;51.728;6.674;2023-04-01T14:27:24;13.80;;;9.73;;
4047;SDS011;2038;51.728;6.674;2023-04-01T14:30:15;17.17;;;11.53;;
4047;SDS011;2038;51.728;6.674;2023-04-01T14:33:20;16.93;;;10.57;;
4047;SDS011;2038;51.728;6.674;2023-04-01T14:39:43;14.80;;;10.00;;
4047;SDS011;2038;51.728;6.674;2023-04-01T14:46:13;11.43;;;8.57;;
4047;SDS011;2038;51.728;6.674;2023-04-01T14:49:37;14.57;;;9.33;;
4047;SDS011;2038;51.728;6.674;2023-04-01T14:52:15;11.37;;;8.07;;
4047;SDS011;2038;51.728;6.674;2023-04-01T14:54:53;10.90;;;8.33;;
4047;SDS011;2038;51.728;6.674;2023-04-01T14:57:23;18.57;;;11.30;;
4047;SDS011;2038;51.728;6.674;2023-04-01T15:00:01;12.73;;;10.03;;
4047;SDS011;2038;51.728;6.674;2023-04-01T15:02:45;11.27;;;7.90;;
4047;SDS011;2038;51.728;6.674;2023-04-01T15:05:47;14.17;;;9.80;;
4047;SDS011;2038;51.728;6.674;2023-04-01T15:14:26;9.50;;;6.27;;
4047;SDS011;2038;51.728;6.674;2023-04-01T15:17:04;5.17;;;3.80;;
4047;SDS011;2038;51.728;6.674;2023-04-01T15:23:00;5.00;;;4.03;;
4047;SDS011;2038;51.728;6.674;2023-04-01T15:26:12;5.10;;;4.27;;
4047;SDS011;2038;51.728;6.674;2023-04-01T15:34:56;5.73;;;4.80;;
4047;SDS011;2038;51.728;6.674;2023-04-01T15:38:05;4.60;;;4.20;;
4047;SDS011;2038;51.728;6.674;2023-04-01T15:41:07;5.47;;;4.87;;
4047;SDS011;2038;51.728;6.674;2023-04-01T15:43:41;5.20;;;3.90;;
4047;SDS011;2038;51.728;6.674;2023-04-01T15:49:13;4.70;;;4.20;;
4047;SDS011;2038;51.728;6.674;2023-04-01T15:55:21;4.70;;;4.20;;
4047;SDS011;2038;51.728;6.674;2023-04-01T15:58:18;4.70;;;4.20;;
4047;SDS011;2038;51.728;6.674;2023-04-01T16:01:16;5.23;;;4.73;;
4047;SDS011;2038;51.728;6.674;2023-04-01T16:04:07;5.10;;;4.60;;
4047;SDS011;2038;51.728;6.674;2023-04-01T16:09:50;6.33;;;5.23;;
4047;SDS011;2038;51.728;6.674;2023-04-01T16:18:36;7.67;;;6.87;;
4047;SDS011;2038;51.728;6.674;2023-04-01T16:21:33;7.80;;;5.70;;
4047;SDS011;2038;51.728;6.674;2023-04-01T16:24:19;6.13;;;4.83;;
4047;SDS011;2038;51.728;6.674;2023-04-01T16:27:13;5.60;;;4.93;;
4047;SDS011;2038;51.728;6.674;2023-04-01T16:29:48;6.77;;;5.23;;
4047;SDS011;2038;51.728;6.674;2023-04-01T16:32:26;7.43;;;5.30;;
4047;SDS011;2038;51.728;6.674;2023-04-01T16:37:54;8.80;;;5.53;;
4047;SDS011;2038;51.728;6.674;2023-04-01T16:43:45;6.37;;;5.30;;
4047;SDS011;2038;51.728;6.674;2023-04-01T16:46:38;7.80;;;6.00;;
4047;SDS011;2038;51.728;6.674;2023-04-01T16:54:23;7.10;;;6.40;;
4047;SDS011;2038;51.728;6.674;2023-04-01T16:59:54;8.00;;;6.80;;
4047;SDS011;2038;51.728;6.674;2023-04-01T17:05:49;7.83;;;5.87;;
4047;SDS011;2038;51.728;6.674;2023-04-01T17:09:19;6.90;;;5.27;;
4047;SDS011;2038;51.728;6.674;2023-04-01T17:11:52;6.20;;;4.87;;
4047;SDS011;2038;51.728;6.674;2023-04-01T17:17:37;8.20;;;5.37;;
4047;SDS011;2038;51.728;6.674;2023-04-01T17:23:13;5.47;;;4.97;;
4047;SDS011;2038;51.728;6.674;2023-04-01T17:26:06;7.13;;;6.13;;
4047;SDS011;2038;51.728;6.674;2023-04-01T17:28:52;6.40;;;5.60;;
4047;SDS011;2038;51.728;6.674;2023-04-01T17:31:49;8.13;;;6.10;;
4047;SDS011;2038;51.728;6.674;2023-04-01T17:34:52;12.73;;;7.10;;
4047;SDS011;2038;51.728;6.674;2023-04-01T17:37:37;7.77;;;5.77;;
4047;SDS011;2038;51.728;6.674;2023-04-01T17:40:50;6.60;;;6.00;;
4047;SDS011;2038;51.728;6.674;2023-04-01T17:46:33;8.77;;;7.50;;
4047;SDS011;2038;51.728;6.674;2023-04-01T17:49:18;7.27;;;6.43;;
4047;SDS011;2038;51.728;6.674;2023-04-01T17:58:02;4.50;;;4.10;;
4047;SDS011;2038;51.728;6.674;2023-04-01T18:01:03;4.60;;;4.20;;
4047;SDS011;2038;51.728;6.674;2023-04-01T18:07:18;4.80;;;4.30;;
4047;SDS011;2038;51.728;6.674;2023-04-01T18:13:06;5.63;;;5.00;;
4047;SDS011;2038;51.728;6.674;2023-04-01T18:21:49;4.77;;;4.37;;
4047;SDS011;2038;51.728;6.674;2023-04-01T18:24:41;4.43;;;4.03;;
4047;SDS011;2038;51.728;6.674;2023-04-01T18:27:36;3.80;;;3.50;;
4047;SDS011;2038;51.728;6.674;2023-04-01T18:30:15;4.23;;;3.87;;
4047;SDS011;2038;51.728;6.674;2023-04-01T18:32:58;4.47;;;4.13;;
4047;SDS011;2038;51.728;6.674;2023-04-01T18:41:12;5.00;;;4.60;;
4047;SDS011;2038;51.728;6.674;2023-04-01T18:43:57;4.90;;;4.40;;
4047;SDS011;2038;51.728;6.674;2023-04-01T18:50:13;3.90;;;3.60;;
4047;SDS011;2038;51.728;6.674;2023-04-01T18:53:26;3.20;;;3.00;;
4047;SDS011;2038;51.728;6.674;2023-04-01T18:56:06;5.60;;;3.93;;
4047;SDS011;2038;51.728;6.674;2023-04-01T19:04:09;3.77;;;3.47;;
4047;SDS011;2038;51.728;6.674;2023-04-01T19:06:52;3.63;;;3.33;;
4047;SDS011;2038;51.728;6.674;2023-04-01T19:15:09;3.50;;;3.30;;
4047;SDS011;2038;51.728;6.674;2023-04-01T19:23:53;2.70;;;2.50;;
4047;SDS011;2038;51.728;6.674;2023-04-01T19:26:39;3.57;;;3.27;;
4047;SDS011;2038;51.728;6.674;2023-04-01T19:38:00;3.93;;;3.57;;
4047;SDS011;2038;51.728;6.674;2023-04-01T19:40:56;3.60;;;3.30;;
4047;SDS011;2038;51.728;6.674;2023-04-01T19:43:50;3.63;;;3.30;;
4047;SDS011;2038;51.728;6.674;2023-04-01T19:46:33;3.57;;;3.10;;
4047;SDS011;2038;51.728;6.674;2023-04-01T19:49:34;3.10;;;2.80;;
4047;SDS011;2038;51.728;6.674;2023-04-01T19:58:12;2.80;;;2.50;;
4047;SDS011;2038;51.728;6.674;2023-04-01T20:00:52;3.77;;;3.47;;
4047;SDS011;2038;51.728;6.674;2023-04-01T20:03:40;3.60;;;3.30;;
4047;SDS011;2038;51.728;6.674;2023-04-01T20:06:44;3.77;;;3.50;;
4047;SDS011;2038;51.728;6.674;2023-04-01T20:09:45;3.00;;;2.70;;
4047;SDS011;2038;51.728;6.674;2023-04-01T20:17:57;4.00;;;3.60;;
4047;SDS011;2038;51.728;6.674;2023-04-01T20:20:37;4.73;;;4.33;;
4047;SDS011;2038;51.728;6.674;2023-04-01T20:23:06;4.50;;;4.20;;
4047;SDS011;2038;51.728;6.674;2023-04-01T20:25:58;3.80;;;3.50;;
4047;SDS011;2038;51.728;6.674;2023-04-01T20:28:37;4.47;;;3.10;;
4047;SDS011;2038;51.728;6.674;2023-04-01T20:31:31;3.80;;;3.50;;
4047;SDS011;2038;51.728;6.674;2023-04-01T20:34:19;3.60;;;3.30;;
4047;SDS011;2038;51.728;6.674;2023-04-01T20:37:16;3.17;;;2.90;;
4047;SDS011;2038;51.728;6.674;2023-04-01T20:46:20;3.37;;;3.17;;
4047;SDS011;2038;51.728;6.674;2023-04-01T20:54:52;3.90;;;3.60;;
4047;SDS011;2038;51.728;6.674;2023-04-01T20:57:56;9.10;;;3.80;;
4047;SDS011;2038;51.728;6.674;2023-04-01T21:00:47;4.40;;;4.00;;
4047;SDS011;2038;51.728;6.674;2023-04-01T21:03:49;4.33;;;3.97;;
4047;SDS011;2038;51.728;6.674;2023-04-01T21:06:35;4.33;;;3.93;;
4047;SDS011;2038;51.728;6.674;2023-04-01T21:12:04;4.57;;;4.17;;
4047;SDS011;2038;51.728;6.674;2023-04-01T21:14:45;5.30;;;4.80;;
4047;SDS011;2038;51.728;6.674;2023-04-01T21:17:37;5.20;;;4.73;;
4047;SDS011;2038;51.728;6.674;2023-04-01T21:20:53;4.60;;;4.20;;
4047;SDS011;2038;51.728;6.674;2023-04-01T21:42:55;6.03;;;5.43;;
4047;SDS011;2038;51.728;6.674;2023-04-01T21:52:18;6.67;;;5.97;;
4047;SDS011;2038;51.728;6.674;2023-04-01T21:55:42;5.47;;;4.97;;
4047;SDS011;2038;51.728;6.674;2023-04-01T22:04:51;6.23;;;5.23;;
4047;SDS011;2038;51.728;6.674;2023-04-01T22:10:38;6.13;;;5.63;;
4047;SDS011;2038;51.728;6.674;2023-04-01T22:13:23;5.77;;;5.27;;
4047;SDS011;2038;51.728;6.674;2023-04-01T22:21:41;5.90;;;5.40;;
4047;SDS011;2038;51.728;6.674;2023-04-01T22:30:14;5.80;;;5.30;;
4047;SDS011;2038;51.728;6.674;2023-04-01T22:32:57;4.83;;;4.47;;
4047;SDS011;2038;51.728;6.674;2023-04-01T22:36:23;5.13;;;4.73;;
4047;SDS011;2038;51.728;6.674;2023-04-01T22:39:20;5.13;;;4.60;;
4047;SDS011;2038;51.728;6.674;2023-04-01T22:51:06;4.93;;;4.53;;
4047;SDS011;2038;51.728;6.674;2023-04-01T22:54:02;8.77;;;5.60;;
4047;SDS011;2038;51.728;6.674;2023-04-01T22:56:49;5.97;;;5.33;;
4047;SDS011;2038;51.728;6.674;2023-04-01T22:59:24;6.10;;;5.60;;
4047;SDS011;2038;51.728;6.674;2023-04-01T23:02:12;6.70;;;4.60;;
4047;SDS011;2038;51.728;6.674;2023-04-01T23:04:47;6.20;;;5.37;;
4047;SDS011;2038;51.728;6.674;2023-04-01T23:10:02;4.80;;;4.40;;
4047;SDS011;2038;51.728;6.674;2023-04-01T23:12:40;4.30;;;3.90;;
4047;SDS011;2038;51.728;6.674;2023-04-01T23:15:11;5.47;;;4.97;;
4047;SDS011;2038;51.728;6.674;2023-04-01T23:17:49;5.60;;;4.50;;
4047;SDS011;2038;51.728;6.674;2023-04-01T23:23:30;4.37;;;4.03;;
4047;SDS011;2038;51.728;6.674;2023-04-01T23:26:38;4.00;;;3.20;;
4047;SDS011;2038;51.728;6.674;2023-04-01T23:29:18;3.93;;;3.43;;
4047;SDS011;2038;51.728;6.674;2023-04-01T23:31:47;5.03;;;4.53;;
4047;SDS011;2038;51.728;6.674;2023-04-01T23:34:27;5.10;;;4.70;;
4047;SDS011;2038;51.728;6.674;2023-04-01T23:37:04;4.43;;;4.03;;
4047;SDS011;2038;51.728;6.674;2023-04-01T23:39:38;4.77;;;4.23;;
4047;SDS011;2038;51.728;6.674;2023-04-01T23:42:18;6.53;;;4.30;;
4047;SDS011;2038;51.728;6.674;2023-04-01T23:44:58;4.80;;;4.40;;
4047;SDS011;2038;51.728;6.674;2023-04-01T23:47:39;5.93;;;5.43;;
4047;SDS011;2038;51.728;6.674;2023-04-01T23:50:07;6.00;;;5.50;;
4047;SDS011;2038;51.728;6.674;2023-04-01T23:52:49;6.33;;;5.73;;
4047;SDS011;2038;51.728;6.674;2023-04-01T23:55:40;6.73;;;6.13;;
